Historyczne dane pomiarowe

Dodano dane terminowe – wersja testowa.

Dane z okresu 1951-2019

Wersja bazy: 1.34 [2019-03-16, lista zmian], aktualizacja planowana na 2019-04-15

Dane meteo z obszaru Polski uzyskane na podstawie danych udostępnionych przez Instytut Meteorologii i Gospodarki Wodnej – Państwowy Instytut Badawczy.

 

Wybierz Datę:    

       

TemperaturaWilgotnośćZachmurzenieWiatrCiśnienieWidzialnośćZjawiska
 Data    tng td wb rh cc ccl cl cm ch dir g1 g2 mslp ppp      
1994-06-19 00:00:00 12.0--- 10.2 11.089wxwxwx3wx--1008.6 990.1 0.0---wx
1994-06-19 01:00:00 11.7--- 10.6 11.193wxwxwx4wx--1007.9 989.4----wxw1
1994-06-19 02:00:00 11.5--- 10.8 11.195wxwxwxwx5wx--1007.2 988.7----wx
1994-06-19 03:00:00 11.7--- 10.8 11.294wxwxwx5wx--1006.9 988.4----wxw1
1994-06-19 04:00:00 11.8--- 10.9 11.394wxwxwx5wx--1006.8 988.3----wx
1994-06-19 05:00:00 12.1--- 11.4 11.795wxwxwxwx4wx--1006.8 988.3----wx
1994-06-19 06:00:00 12.5--- 11.4 11.993wxwxwxwx5wx--1007.2 988.7 0.8---wxw1
1994-06-19 07:00:00 12.2--- 10.8 11.491wxwxwxwx5wx--1007.5 989.0----wx
1994-06-19 08:00:00 12.3--- 10.5 11.389wxwxwxwx4wx--1007.8 989.3----wxw1
1994-06-19 09:00:00 12.8--- 11.6 12.192wxwxwxwx4wx--1008.0 989.5----wxw1
1994-06-19 10:00:00 13.2--- 10.9 11.986wxwxwxwx5wx--1008.1 989.6----wxw1
1994-06-19 11:00:00 12.7--- 11.3 11.991wxwxwxwx4wx--1008.2 989.7----wxw1
1994-06-19 12:00:00 15.0--- 11.0 12.777wxwxwxwx5wx--1007.7 989.4 1.4---wxw1
1994-06-19 13:00:00 15.8--- 11.1 13.174wxwxwxwx4wx--1007.3 989.0----wx
1994-06-19 14:00:00 17.0--- 11.3 13.769wxwxwxwx5wx--1006.6 988.4----wx
1994-06-19 15:00:00 17.2--- 12.5 14.474wxwxwxwx4wx--1006.8 988.6----wx
1994-06-19 16:00:00 17.5--- 12.1 14.370wxwxwxwx5wx--1006.7 988.5----wx
1994-06-19 17:00:00 16.3--- 12.6 14.179wxwxwxwx3wx--1007.0 988.8----wx
1994-06-19 18:00:00 15.9--- 13.0 14.283wxwxwx2wx--1006.9 988.6 0.0---wx
1994-06-19 19:00:00 15.4--- 13.0 14.086wxwxwx2wx--1006.9 988.6----wx
1994-06-19 20:00:00 15.4--- 13.0 14.086wxwxwx2wx--1006.5 988.2----wx
1994-06-19 21:00:00 15.3--- 13.8 14.491wxwxwx4wx--1006.9 988.6----wx
1994-06-19 22:00:00 14.8--- 14.1 14.496wxwxwx3wx--1007.0 988.7----wx
1994-06-19 23:00:00 14.9--- 13.7 14.293wxwxwx4wx--1006.8 988.5----wx

 

Źródłem pochodzenia danych jest Instytut Meteorologii i Gospodarki Wodnej – Państwowy Instytut Badawczy. Dane Instytutu Meteorologii i Gospodarki Wodnej – Państwowego Instytutu Badawczego zostały przetworzone.

Dane źródłowe można odnaleźć na stronie https://dane.imgw.pl